EmailTwitter


Observations de surface / Québec / CYQB (71714)

Régions: Québec | Canada | États-Unis | Europe | France | UK | Elsewhere
Station
Affichage
Infos & localisation pour CYQB (71714) | Aide pour décoder les METARs

Observations prises le 2017-05-28 à 12H00 UTC à QUEBEC A, QB (CYQB)

Etat du ciel: partiellement nuageux.

Température: 13.0 Celsius

Point de rosée: 9.0 Celsius

Humidité relative: 77%

Vents: Est à 13 km/h ou 7 noeuds.

Pression au niveau moyen de la mer: 101.41 kilopascals.

Calage altimétrique: 101.39 kilopascals ou 29.94 pouces de mercure.

Visibilité horizontale: 15.00 milles terrestres ou 24.00 kilomètres.

Hauteur du plafond: 2896 mètres ( 9500 pieds ).

Observation METAR:

CYQB 281200Z 09007KT 15SM BKN095 13/09 A2994 RMK AC7 SLP141=